sensor_id;sensor_type;location;lat;lon;timestamp;P1;durP1;ratioP1;P2;durP2;ratioP2
24389;SDS011;12510;56.468;-3.004;2022-09-09T00:04:32;18.83;;;5.20;;
24389;SDS011;12510;56.468;-3.004;2022-09-09T00:07:05;22.15;;;5.72;;
24389;SDS011;12510;56.468;-3.004;2022-09-09T00:09:45;18.33;;;4.60;;
24389;SDS011;12510;56.468;-3.004;2022-09-09T00:12:27;13.52;;;4.68;;
24389;SDS011;12510;56.468;-3.004;2022-09-09T00:15:02;15.75;;;5.45;;
24389;SDS011;12510;56.468;-3.004;2022-09-09T00:18:03;15.73;;;4.47;;
24389;SDS011;12510;56.468;-3.004;2022-09-09T00:25:57;15.10;;;4.85;;
24389;SDS011;12510;56.468;-3.004;2022-09-09T00:28:24;20.48;;;6.13;;
24389;SDS011;12510;56.468;-3.004;2022-09-09T00:30:52;21.85;;;5.82;;
24389;SDS011;12510;56.468;-3.004;2022-09-09T00:33:22;20.50;;;5.97;;
24389;SDS011;12510;56.468;-3.004;2022-09-09T00:35:54;17.40;;;6.40;;
24389;SDS011;12510;56.468;-3.004;2022-09-09T00:38:25;20.33;;;6.63;;
24389;SDS011;12510;56.468;-3.004;2022-09-09T00:44:33;16.77;;;5.70;;
24389;SDS011;12510;56.468;-3.004;2022-09-09T00:57:38;14.05;;;4.35;;
24389;SDS011;12510;56.468;-3.004;2022-09-09T01:00:18;7.43;;;3.50;;
24389;SDS011;12510;56.468;-3.004;2022-09-09T01:02:57;7.88;;;3.20;;
24389;SDS011;12510;56.468;-3.004;2022-09-09T01:09:54;6.43;;;2.83;;
24389;SDS011;12510;56.468;-3.004;2022-09-09T01:12:15;10.30;;;3.60;;
24389;SDS011;12510;56.468;-3.004;2022-09-09T01:26:18;12.50;;;4.85;;
24389;SDS011;12510;56.468;-3.004;2022-09-09T01:29:16;10.30;;;4.65;;
24389;SDS011;12510;56.468;-3.004;2022-09-09T01:34:24;14.05;;;3.90;;
24389;SDS011;12510;56.468;-3.004;2022-09-09T01:39:28;11.77;;;3.95;;
24389;SDS011;12510;56.468;-3.004;2022-09-09T01:42:00;13.95;;;4.47;;
24389;SDS011;12510;56.468;-3.004;2022-09-09T01:44:28;9.93;;;3.67;;
24389;SDS011;12510;56.468;-3.004;2022-09-09T01:46:56;12.18;;;4.05;;
24389;SDS011;12510;56.468;-3.004;2022-09-09T01:49:23;14.07;;;4.03;;
24389;SDS011;12510;56.468;-3.004;2022-09-09T01:51:50;14.32;;;5.53;;
24389;SDS011;12510;56.468;-3.004;2022-09-09T01:54:26;16.00;;;4.80;;
24389;SDS011;12510;56.468;-3.004;2022-09-09T02:02:23;7.60;;;3.67;;
24389;SDS011;12510;56.468;-3.004;2022-09-09T02:07:50;15.88;;;4.00;;
24389;SDS011;12510;56.468;-3.004;2022-09-09T02:13:28;17.50;;;4.03;;
24389;SDS011;12510;56.468;-3.004;2022-09-09T02:18:28;18.67;;;4.18;;
24389;SDS011;12510;56.468;-3.004;2022-09-09T02:21:01;10.90;;;4.25;;
24389;SDS011;12510;56.468;-3.004;2022-09-09T02:23:29;16.27;;;4.22;;
24389;SDS011;12510;56.468;-3.004;2022-09-09T02:25:59;11.52;;;3.78;;
24389;SDS011;12510;56.468;-3.004;2022-09-09T02:28:27;10.38;;;3.85;;
24389;SDS011;12510;56.468;-3.004;2022-09-09T02:30:56;14.98;;;4.25;;
24389;SDS011;12510;56.468;-3.004;2022-09-09T02:33:32;11.23;;;3.22;;
24389;SDS011;12510;56.468;-3.004;2022-09-09T02:36:03;18.13;;;4.25;;
24389;SDS011;12510;56.468;-3.004;2022-09-09T02:38:34;12.60;;;4.40;;
24389;SDS011;12510;56.468;-3.004;2022-09-09T02:41:10;14.85;;;3.75;;
24389;SDS011;12510;56.468;-3.004;2022-09-09T02:43:37;11.18;;;3.80;;
24389;SDS011;12510;56.468;-3.004;2022-09-09T02:54:27;6.93;;;2.30;;
24389;SDS011;12510;56.468;-3.004;2022-09-09T02:57:00;6.28;;;2.50;;
24389;SDS011;12510;56.468;-3.004;2022-09-09T02:59:35;7.50;;;2.95;;
24389;SDS011;12510;56.468;-3.004;2022-09-09T03:02:02;9.02;;;3.15;;
24389;SDS011;12510;56.468;-3.004;2022-09-09T03:04:29;9.88;;;3.00;;
24389;SDS011;12510;56.468;-3.004;2022-09-09T03:06:58;6.78;;;2.47;;
24389;SDS011;12510;56.468;-3.004;2022-09-09T03:09:25;6.28;;;1.95;;
24389;SDS011;12510;56.468;-3.004;2022-09-09T03:11:55;9.07;;;2.42;;
24389;SDS011;12510;56.468;-3.004;2022-09-09T03:14:22;6.55;;;2.10;;
24389;SDS011;12510;56.468;-3.004;2022-09-09T03:16:52;4.35;;;2.70;;
24389;SDS011;12510;56.468;-3.004;2022-09-09T03:19:19;6.25;;;1.80;;
24389;SDS011;12510;56.468;-3.004;2022-09-09T03:21:47;9.77;;;2.92;;
24389;SDS011;12510;56.468;-3.004;2022-09-09T03:24:14;7.93;;;2.67;;
24389;SDS011;12510;56.468;-3.004;2022-09-09T03:26:40;6.80;;;2.55;;
24389;SDS011;12510;56.468;-3.004;2022-09-09T03:29:13;7.68;;;2.22;;
24389;SDS011;12510;56.468;-3.004;2022-09-09T03:31:41;10.95;;;3.25;;
24389;SDS011;12510;56.468;-3.004;2022-09-09T03:34:08;7.43;;;3.20;;
24389;SDS011;12510;56.468;-3.004;2022-09-09T03:36:35;7.55;;;3.20;;
24389;SDS011;12510;56.468;-3.004;2022-09-09T03:39:04;6.55;;;2.75;;
24389;SDS011;12510;56.468;-3.004;2022-09-09T03:41:31;8.23;;;2.83;;
24389;SDS011;12510;56.468;-3.004;2022-09-09T03:43:59;9.05;;;2.78;;
24389;SDS011;12510;56.468;-3.004;2022-09-09T03:46:29;8.93;;;3.30;;
24389;SDS011;12510;56.468;-3.004;2022-09-09T03:48:58;12.52;;;3.33;;
24389;SDS011;12510;56.468;-3.004;2022-09-09T03:51:25;10.57;;;3.20;;
24389;SDS011;12510;56.468;-3.004;2022-09-09T03:53:51;11.38;;;3.28;;
24389;SDS011;12510;56.468;-3.004;2022-09-09T03:56:20;10.98;;;3.35;;
24389;SDS011;12510;56.468;-3.004;2022-09-09T03:58:47;8.63;;;3.40;;
24389;SDS011;12510;56.468;-3.004;2022-09-09T04:01:14;10.20;;;3.20;;
24389;SDS011;12510;56.468;-3.004;2022-09-09T04:03:43;6.85;;;2.63;;
24389;SDS011;12510;56.468;-3.004;2022-09-09T04:06:11;6.75;;;2.40;;
24389;SDS011;12510;56.468;-3.004;2022-09-09T04:08:41;8.20;;;3.63;;
24389;SDS011;12510;56.468;-3.004;2022-09-09T04:11:08;4.78;;;1.80;;
24389;SDS011;12510;56.468;-3.004;2022-09-09T04:13:37;6.57;;;2.40;;
24389;SDS011;12510;56.468;-3.004;2022-09-09T04:16:13;3.15;;;1.40;;
24389;SDS011;12510;56.468;-3.004;2022-09-09T04:18:42;6.80;;;2.10;;
24389;SDS011;12510;56.468;-3.004;2022-09-09T04:21:09;6.50;;;1.88;;
24389;SDS011;12510;56.468;-3.004;2022-09-09T04:23:38;5.38;;;1.92;;
24389;SDS011;12510;56.468;-3.004;2022-09-09T04:26:05;5.68;;;1.70;;
24389;SDS011;12510;56.468;-3.004;2022-09-09T04:28:34;2.50;;;1.20;;
24389;SDS011;12510;56.468;-3.004;2022-09-09T04:31:09;4.20;;;2.08;;
24389;SDS011;12510;56.468;-3.004;2022-09-09T04:33:40;4.60;;;1.50;;
24389;SDS011;12510;56.468;-3.004;2022-09-09T04:36:08;4.07;;;1.60;;
24389;SDS011;12510;56.468;-3.004;2022-09-09T04:38:35;4.07;;;1.88;;
24389;SDS011;12510;56.468;-3.004;2022-09-09T04:41:02;5.05;;;2.40;;
24389;SDS011;12510;56.468;-3.004;2022-09-09T04:43:29;3.33;;;1.55;;
24389;SDS011;12510;56.468;-3.004;2022-09-09T04:45:57;8.00;;;2.17;;
24389;SDS011;12510;56.468;-3.004;2022-09-09T04:48:25;6.50;;;2.22;;
24389;SDS011;12510;56.468;-3.004;2022-09-09T04:50:59;11.45;;;2.47;;
24389;SDS011;12510;56.468;-3.004;2022-09-09T04:53:29;9.20;;;2.60;;
24389;SDS011;12510;56.468;-3.004;2022-09-09T04:56:05;8.35;;;2.65;;
24389;SDS011;12510;56.468;-3.004;2022-09-09T04:58:40;8.20;;;2.47;;
24389;SDS011;12510;56.468;-3.004;2022-09-09T05:03:44;6.25;;;2.85;;
24389;SDS011;12510;56.468;-3.004;2022-09-09T05:06:14;6.60;;;2.35;;
24389;SDS011;12510;56.468;-3.004;2022-09-09T05:08:47;7.22;;;2.78;;
24389;SDS011;12510;56.468;-3.004;2022-09-09T05:11:21;6.93;;;2.38;;
24389;SDS011;12510;56.468;-3.004;2022-09-09T05:13:55;8.48;;;2.50;;
24389;SDS011;12510;56.468;-3.004;2022-09-09T05:16:22;9.43;;;2.97;;
24389;SDS011;12510;56.468;-3.004;2022-09-09T05:18:49;9.45;;;2.47;;
24389;SDS011;12510;56.468;-3.004;2022-09-09T05:21:18;11.02;;;2.80;;
24389;SDS011;12510;56.468;-3.004;2022-09-09T05:23:46;10.27;;;2.95;;
24389;SDS011;12510;56.468;-3.004;2022-09-09T05:26:14;9.45;;;2.90;;
24389;SDS011;12510;56.468;-3.004;2022-09-09T05:28:42;10.93;;;4.07;;
24389;SDS011;12510;56.468;-3.004;2022-09-09T05:31:09;7.32;;;2.58;;
24389;SDS011;12510;56.468;-3.004;2022-09-09T05:33:40;8.70;;;2.50;;
24389;SDS011;12510;56.468;-3.004;2022-09-09T05:36:10;11.25;;;3.20;;
24389;SDS011;12510;56.468;-3.004;2022-09-09T05:38:40;5.25;;;2.10;;
24389;SDS011;12510;56.468;-3.004;2022-09-09T05:41:07;8.98;;;2.75;;
24389;SDS011;12510;56.468;-3.004;2022-09-09T05:43:36;6.25;;;2.33;;
24389;SDS011;12510;56.468;-3.004;2022-09-09T05:46:08;7.72;;;2.20;;
24389;SDS011;12510;56.468;-3.004;2022-09-09T05:48:38;9.93;;;2.35;;
24389;SDS011;12510;56.468;-3.004;2022-09-09T05:51:08;9.05;;;2.78;;
24389;SDS011;12510;56.468;-3.004;2022-09-09T05:53:38;13.05;;;3.53;;
24389;SDS011;12510;56.468;-3.004;2022-09-09T05:56:06;9.82;;;2.60;;
24389;SDS011;12510;56.468;-3.004;2022-09-09T05:58:37;6.88;;;2.90;;
24389;SDS011;12510;56.468;-3.004;2022-09-09T06:01:08;8.10;;;3.08;;
24389;SDS011;12510;56.468;-3.004;2022-09-09T06:03:46;7.90;;;2.65;;
24389;SDS011;12510;56.468;-3.004;2022-09-09T06:06:15;11.95;;;3.30;;
24389;SDS011;12510;56.468;-3.004;2022-09-09T06:08:43;9.73;;;2.95;;
24389;SDS011;12510;56.468;-3.004;2022-09-09T06:11:13;12.82;;;3.42;;
24389;SDS011;12510;56.468;-3.004;2022-09-09T06:13:42;11.02;;;4.50;;
24389;SDS011;12510;56.468;-3.004;2022-09-09T06:16:12;9.38;;;3.35;;
24389;SDS011;12510;56.468;-3.004;2022-09-09T06:18:42;8.27;;;2.75;;
24389;SDS011;12510;56.468;-3.004;2022-09-09T06:21:15;10.35;;;2.75;;
24389;SDS011;12510;56.468;-3.004;2022-09-09T06:23:42;6.30;;;2.90;;
24389;SDS011;12510;56.468;-3.004;2022-09-09T06:26:12;6.45;;;2.03;;
24389;SDS011;12510;56.468;-3.004;2022-09-09T06:28:46;9.18;;;2.70;;
24389;SDS011;12510;56.468;-3.004;2022-09-09T06:31:14;4.28;;;1.88;;
24389;SDS011;12510;56.468;-3.004;2022-09-09T06:33:50;10.40;;;3.35;;
24389;SDS011;12510;56.468;-3.004;2022-09-09T06:36:23;5.88;;;2.13;;
24389;SDS011;12510;56.468;-3.004;2022-09-09T06:38:51;9.88;;;2.22;;
24389;SDS011;12510;56.468;-3.004;2022-09-09T06:41:19;6.03;;;2.30;;
24389;SDS011;12510;56.468;-3.004;2022-09-09T06:43:48;6.55;;;2.33;;
24389;SDS011;12510;56.468;-3.004;2022-09-09T06:46:16;8.50;;;2.97;;
24389;SDS011;12510;56.468;-3.004;2022-09-09T06:48:46;11.55;;;3.63;;
24389;SDS011;12510;56.468;-3.004;2022-09-09T06:51:18;9.38;;;2.78;;
24389;SDS011;12510;56.468;-3.004;2022-09-09T06:53:50;10.85;;;3.58;;
24389;SDS011;12510;56.468;-3.004;2022-09-09T06:58:56;11.93;;;3.55;;
24389;SDS011;12510;56.468;-3.004;2022-09-09T07:01:31;12.00;;;3.53;;
24389;SDS011;12510;56.468;-3.004;2022-09-09T07:04:01;13.68;;;3.65;;
24389;SDS011;12510;56.468;-3.004;2022-09-09T07:06:34;9.50;;;3.58;;
24389;SDS011;12510;56.468;-3.004;2022-09-09T07:09:04;10.98;;;3.60;;
24389;SDS011;12510;56.468;-3.004;2022-09-09T07:14:00;9.52;;;3.83;;
24389;SDS011;12510;56.468;-3.004;2022-09-09T07:16:28;9.35;;;2.85;;
24389;SDS011;12510;56.468;-3.004;2022-09-09T07:18:58;10.05;;;3.55;;
24389;SDS011;12510;56.468;-3.004;2022-09-09T07:21:27;11.35;;;3.67;;
24389;SDS011;12510;56.468;-3.004;2022-09-09T07:23:56;14.90;;;3.72;;
24389;SDS011;12510;56.468;-3.004;2022-09-09T07:26:24;13.30;;;3.85;;
24389;SDS011;12510;56.468;-3.004;2022-09-09T07:28:53;10.68;;;2.80;;
24389;SDS011;12510;56.468;-3.004;2022-09-09T07:31:24;13.15;;;3.58;;
24389;SDS011;12510;56.468;-3.004;2022-09-09T07:33:53;11.32;;;4.20;;
24389;SDS011;12510;56.468;-3.004;2022-09-09T07:36:24;12.13;;;4.13;;
24389;SDS011;12510;56.468;-3.004;2022-09-09T07:38:55;12.00;;;4.03;;
24389;SDS011;12510;56.468;-3.004;2022-09-09T07:41:25;9.57;;;3.60;;
24389;SDS011;12510;56.468;-3.004;2022-09-09T07:43:53;12.07;;;3.20;;
24389;SDS011;12510;56.468;-3.004;2022-09-09T07:46:22;9.88;;;4.00;;
24389;SDS011;12510;56.468;-3.004;2022-09-09T07:48:51;10.98;;;3.40;;
24389;SDS011;12510;56.468;-3.004;2022-09-09T07:51:23;11.48;;;3.38;;
24389;SDS011;12510;56.468;-3.004;2022-09-09T07:53:59;13.40;;;4.10;;
24389;SDS011;12510;56.468;-3.004;2022-09-09T07:56:29;10.80;;;5.40;;
24389;SDS011;12510;56.468;-3.004;2022-09-09T07:58:58;6.68;;;2.70;;
24389;SDS011;12510;56.468;-3.004;2022-09-09T08:01:26;5.93;;;2.22;;
24389;SDS011;12510;56.468;-3.004;2022-09-09T08:03:54;6.75;;;3.05;;
24389;SDS011;12510;56.468;-3.004;2022-09-09T08:06:29;5.88;;;2.30;;
24389;SDS011;12510;56.468;-3.004;2022-09-09T08:08:59;7.72;;;2.60;;
24389;SDS011;12510;56.468;-3.004;2022-09-09T08:11:27;6.60;;;2.47;;
24389;SDS011;12510;56.468;-3.004;2022-09-09T08:13:55;7.63;;;2.50;;
24389;SDS011;12510;56.468;-3.004;2022-09-09T08:16:23;7.55;;;2.83;;
24389;SDS011;12510;56.468;-3.004;2022-09-09T08:18:51;5.25;;;1.98;;
24389;SDS011;12510;56.468;-3.004;2022-09-09T08:21:24;9.63;;;2.25;;
24389;SDS011;12510;56.468;-3.004;2022-09-09T08:23:55;9.35;;;2.90;;
24389;SDS011;12510;56.468;-3.004;2022-09-09T08:26:24;7.88;;;2.40;;
24389;SDS011;12510;56.468;-3.004;2022-09-09T08:28:54;6.10;;;2.60;;
24389;SDS011;12510;56.468;-3.004;2022-09-09T08:31:57;6.55;;;2.90;;
24389;SDS011;12510;56.468;-3.004;2022-09-09T08:34:18;7.70;;;2.63;;
24389;SDS011;12510;56.468;-3.004;2022-09-09T08:36:47;7.40;;;3.03;;
24389;SDS011;12510;56.468;-3.004;2022-09-09T08:39:15;9.75;;;2.88;;
24389;SDS011;12510;56.468;-3.004;2022-09-09T08:44:16;8.52;;;3.20;;
24389;SDS011;12510;56.468;-3.004;2022-09-09T08:50:02;9.68;;;3.13;;
24389;SDS011;12510;56.468;-3.004;2022-09-09T08:53:02;8.00;;;2.92;;
24389;SDS011;12510;56.468;-3.004;2022-09-09T08:55:50;7.28;;;3.03;;
24389;SDS011;12510;56.468;-3.004;2022-09-09T08:58:27;7.53;;;2.17;;
24389;SDS011;12510;56.468;-3.004;2022-09-09T09:11:57;8.88;;;3.03;;
24389;SDS011;12510;56.468;-3.004;2022-09-09T09:14:35;8.38;;;2.97;;
24389;SDS011;12510;56.468;-3.004;2022-09-09T09:19:50;17.92;;;5.57;;
24389;SDS011;12510;56.468;-3.004;2022-09-09T09:22:51;9.80;;;3.55;;
24389;SDS011;12510;56.468;-3.004;2022-09-09T09:27:58;14.35;;;4.13;;
24389;SDS011;12510;56.468;-3.004;2022-09-09T09:30:29;8.32;;;3.45;;
24389;SDS011;12510;56.468;-3.004;2022-09-09T09:33:15;12.35;;;3.72;;
24389;SDS011;12510;56.468;-3.004;2022-09-09T09:35:49;12.68;;;4.55;;
24389;SDS011;12510;56.468;-3.004;2022-09-09T09:38:19;10.00;;;3.55;;
24389;SDS011;12510;56.468;-3.004;2022-09-09T09:40:53;12.48;;;4.47;;
24389;SDS011;12510;56.468;-3.004;2022-09-09T09:43:27;10.68;;;3.28;;
24389;SDS011;12510;56.468;-3.004;2022-09-09T09:46:16;10.02;;;3.47;;
24389;SDS011;12510;56.468;-3.004;2022-09-09T09:48:56;9.60;;;3.47;;
24389;SDS011;12510;56.468;-3.004;2022-09-09T09:51:37;10.82;;;3.25;;
24389;SDS011;12510;56.468;-3.004;2022-09-09T09:54:07;10.38;;;3.38;;
24389;SDS011;12510;56.468;-3.004;2022-09-09T09:56:49;9.15;;;3.72;;
24389;SDS011;12510;56.468;-3.004;2022-09-09T10:02:05;9.90;;;3.30;;
24389;SDS011;12510;56.468;-3.004;2022-09-09T10:04:44;9.75;;;3.90;;
24389;SDS011;12510;56.468;-3.004;2022-09-09T10:07:18;8.50;;;2.95;;
24389;SDS011;12510;56.468;-3.004;2022-09-09T10:09:49;12.25;;;3.15;;
24389;SDS011;12510;56.468;-3.004;2022-09-09T10:15:29;10.05;;;3.30;;
24389;SDS011;12510;56.468;-3.004;2022-09-09T10:20:47;9.73;;;3.55;;
24389;SDS011;12510;56.468;-3.004;2022-09-09T10:23:26;10.32;;;3.50;;
24389;SDS011;12510;56.468;-3.004;2022-09-09T10:28:42;10.25;;;3.40;;
24389;SDS011;12510;56.468;-3.004;2022-09-09T10:31:40;10.77;;;3.70;;
24389;SDS011;12510;56.468;-3.004;2022-09-09T10:37:30;11.50;;;3.35;;
24389;SDS011;12510;56.468;-3.004;2022-09-09T10:42:58;9.48;;;2.92;;
24389;SDS011;12510;56.468;-3.004;2022-09-09T10:56:40;9.68;;;2.97;;
24389;SDS011;12510;56.468;-3.004;2022-09-09T10:59:14;9.45;;;3.25;;
24389;SDS011;12510;56.468;-3.004;2022-09-09T11:01:52;11.00;;;2.83;;
24389;SDS011;12510;56.468;-3.004;2022-09-09T11:04:25;8.80;;;3.10;;
24389;SDS011;12510;56.468;-3.004;2022-09-09T11:06:58;9.57;;;2.83;;
24389;SDS011;12510;56.468;-3.004;2022-09-09T11:09:33;9.70;;;2.92;;
24389;SDS011;12510;56.468;-3.004;2022-09-09T11:12:05;8.48;;;2.78;;
24389;SDS011;12510;56.468;-3.004;2022-09-09T11:14:45;9.98;;;3.08;;
24389;SDS011;12510;56.468;-3.004;2022-09-09T11:17:47;11.23;;;3.63;;
24389;SDS011;12510;56.468;-3.004;2022-09-09T11:20:25;8.05;;;2.88;;
24389;SDS011;12510;56.468;-3.004;2022-09-09T11:22:59;7.47;;;2.38;;
24389;SDS011;12510;56.468;-3.004;2022-09-09T11:25:35;7.40;;;2.63;;
24389;SDS011;12510;56.468;-3.004;2022-09-09T11:38:58;9.25;;;2.30;;
24389;SDS011;12510;56.468;-3.004;2022-09-09T11:41:37;9.98;;;2.35;;
24389;SDS011;12510;56.468;-3.004;2022-09-09T11:44:10;10.10;;;2.63;;
24389;SDS011;12510;56.468;-3.004;2022-09-09T11:46:39;7.32;;;2.83;;
24389;SDS011;12510;56.468;-3.004;2022-09-09T11:49:22;10.43;;;3.20;;
24389;SDS011;12510;56.468;-3.004;2022-09-09T11:54:30;8.13;;;2.08;;
24389;SDS011;12510;56.468;-3.004;2022-09-09T11:56:59;9.45;;;2.35;;
24389;SDS011;12510;56.468;-3.004;2022-09-09T12:01:58;5.68;;;2.30;;
24389;SDS011;12510;56.468;-3.004;2022-09-09T12:04:28;8.98;;;2.88;;
24389;SDS011;12510;56.468;-3.004;2022-09-09T12:12:25;8.18;;;2.30;;
24389;SDS011;12510;56.468;-3.004;2022-09-09T12:17:30;5.95;;;2.20;;
24389;SDS011;12510;56.468;-3.004;2022-09-09T12:25:16;6.53;;;1.90;;
24389;SDS011;12510;56.468;-3.004;2022-09-09T12:30:35;5.72;;;1.77;;
24389;SDS011;12510;56.468;-3.004;2022-09-09T12:33:15;7.05;;;2.67;;
24389;SDS011;12510;56.468;-3.004;2022-09-09T12:35:44;6.13;;;2.13;;
24389;SDS011;12510;56.468;-3.004;2022-09-09T12:38:16;6.68;;;1.88;;
24389;SDS011;12510;56.468;-3.004;2022-09-09T12:41:18;7.80;;;2.15;;
24389;SDS011;12510;56.468;-3.004;2022-09-09T12:44:05;3.45;;;2.22;;
24389;SDS011;12510;56.468;-3.004;2022-09-09T12:46:41;8.13;;;1.88;;
24389;SDS011;12510;56.468;-3.004;2022-09-09T12:49:44;7.43;;;2.60;;
24389;SDS011;12510;56.468;-3.004;2022-09-09T12:52:48;6.10;;;2.35;;
24389;SDS011;12510;56.468;-3.004;2022-09-09T12:55:00;6.82;;;2.10;;
24389;SDS011;12510;56.468;-3.004;2022-09-09T12:57:32;5.50;;;1.98;;
24389;SDS011;12510;56.468;-3.004;2022-09-09T13:00:07;5.90;;;2.03;;
24389;SDS011;12510;56.468;-3.004;2022-09-09T13:02:46;7.72;;;2.30;;
24389;SDS011;12510;56.468;-3.004;2022-09-09T13:05:27;8.70;;;2.37;;
24389;SDS011;12510;56.468;-3.004;2022-09-09T13:08:05;6.85;;;1.83;;
24389;SDS011;12510;56.468;-3.004;2022-09-09T13:11:09;6.15;;;2.30;;
24389;SDS011;12510;56.468;-3.004;2022-09-09T13:13:33;9.73;;;2.30;;
24389;SDS011;12510;56.468;-3.004;2022-09-09T13:16:02;7.47;;;1.73;;
24389;SDS011;12510;56.468;-3.004;2022-09-09T13:18:36;4.50;;;1.88;;
24389;SDS011;12510;56.468;-3.004;2022-09-09T13:21:06;10.82;;;1.80;;
24389;SDS011;12510;56.468;-3.004;2022-09-09T13:23:34;7.82;;;2.08;;
24389;SDS011;12510;56.468;-3.004;2022-09-09T13:26:06;5.10;;;1.73;;
24389;SDS011;12510;56.468;-3.004;2022-09-09T13:28:47;5.55;;;1.90;;
24389;SDS011;12510;56.468;-3.004;2022-09-09T13:31:28;4.22;;;1.73;;
24389;SDS011;12510;56.468;-3.004;2022-09-09T13:33:58;6.45;;;2.00;;
24389;SDS011;12510;56.468;-3.004;2022-09-09T13:36:29;5.00;;;1.40;;
24389;SDS011;12510;56.468;-3.004;2022-09-09T13:38:58;3.88;;;1.55;;
24389;SDS011;12510;56.468;-3.004;2022-09-09T13:41:33;6.28;;;1.55;;
24389;SDS011;12510;56.468;-3.004;2022-09-09T13:44:26;6.47;;;2.13;;
24389;SDS011;12510;56.468;-3.004;2022-09-09T13:47:04;8.20;;;1.80;;
24389;SDS011;12510;56.468;-3.004;2022-09-09T13:49:43;4.97;;;1.40;;
24389;SDS011;12510;56.468;-3.004;2022-09-09T13:52:12;5.68;;;1.27;;
24389;SDS011;12510;56.468;-3.004;2022-09-09T13:57:15;5.95;;;1.95;;
24389;SDS011;12510;56.468;-3.004;2022-09-09T13:59:44;4.38;;;1.45;;
24389;SDS011;12510;56.468;-3.004;2022-09-09T14:02:14;9.25;;;3.90;;
24389;SDS011;12510;56.468;-3.004;2022-09-09T14:04:42;6.35;;;2.15;;
24389;SDS011;12510;56.468;-3.004;2022-09-09T14:07:12;5.07;;;2.03;;
24389;SDS011;12510;56.468;-3.004;2022-09-09T14:09:41;2.45;;;1.17;;
24389;SDS011;12510;56.468;-3.004;2022-09-09T14:12:09;3.40;;;1.50;;
24389;SDS011;12510;56.468;-3.004;2022-09-09T14:14:37;2.92;;;1.42;;
24389;SDS011;12510;56.468;-3.004;2022-09-09T14:17:04;4.78;;;1.80;;
24389;SDS011;12510;56.468;-3.004;2022-09-09T14:19:31;3.60;;;1.60;;
24389;SDS011;12510;56.468;-3.004;2022-09-09T14:21:57;5.45;;;1.75;;
24389;SDS011;12510;56.468;-3.004;2022-09-09T14:24:24;6.57;;;1.92;;
24389;SDS011;12510;56.468;-3.004;2022-09-09T14:26:51;5.07;;;1.85;;
24389;SDS011;12510;56.468;-3.004;2022-09-09T14:29:17;6.95;;;1.48;;
24389;SDS011;12510;56.468;-3.004;2022-09-09T14:31:43;6.25;;;1.95;;
24389;SDS011;12510;56.468;-3.004;2022-09-09T14:34:10;5.97;;;1.77;;
24389;SDS011;12510;56.468;-3.004;2022-09-09T14:36:37;5.85;;;1.70;;
24389;SDS011;12510;56.468;-3.004;2022-09-09T14:39:04;5.60;;;1.75;;
24389;SDS011;12510;56.468;-3.004;2022-09-09T14:41:30;7.90;;;2.10;;
24389;SDS011;12510;56.468;-3.004;2022-09-09T14:43:57;7.30;;;1.40;;
24389;SDS011;12510;56.468;-3.004;2022-09-09T14:46:24;6.03;;;1.63;;
24389;SDS011;12510;56.468;-3.004;2022-09-09T14:48:52;5.57;;;2.00;;
24389;SDS011;12510;56.468;-3.004;2022-09-09T14:51:20;3.50;;;1.00;;
24389;SDS011;12510;56.468;-3.004;2022-09-09T14:53:51;6.35;;;1.95;;
24389;SDS011;12510;56.468;-3.004;2022-09-09T14:56:20;5.22;;;1.55;;
24389;SDS011;12510;56.468;-3.004;2022-09-09T14:58:49;6.28;;;1.77;;
24389;SDS011;12510;56.468;-3.004;2022-09-09T15:01:17;5.82;;;1.63;;
24389;SDS011;12510;56.468;-3.004;2022-09-09T15:03:50;7.20;;;1.67;;
24389;SDS011;12510;56.468;-3.004;2022-09-09T15:06:18;8.90;;;2.63;;
24389;SDS011;12510;56.468;-3.004;2022-09-09T15:08:46;6.57;;;1.70;;
24389;SDS011;12510;56.468;-3.004;2022-09-09T15:11:13;4.18;;;1.42;;
24389;SDS011;12510;56.468;-3.004;2022-09-09T15:13:41;5.15;;;1.52;;
24389;SDS011;12510;56.468;-3.004;2022-09-09T15:16:10;6.22;;;1.60;;
24389;SDS011;12510;56.468;-3.004;2022-09-09T15:18:38;9.65;;;1.95;;
24389;SDS011;12510;56.468;-3.004;2022-09-09T15:21:09;3.88;;;1.23;;
24389;SDS011;12510;56.468;-3.004;2022-09-09T15:23:37;3.78;;;1.48;;
24389;SDS011;12510;56.468;-3.004;2022-09-09T15:26:04;4.38;;;1.30;;
24389;SDS011;12510;56.468;-3.004;2022-09-09T15:28:31;3.38;;;1.42;;
24389;SDS011;12510;56.468;-3.004;2022-09-09T15:31:04;4.13;;;1.42;;
24389;SDS011;12510;56.468;-3.004;2022-09-09T15:33:40;4.50;;;1.70;;
24389;SDS011;12510;56.468;-3.004;2022-09-09T15:36:20;4.10;;;1.27;;
24389;SDS011;12510;56.468;-3.004;2022-09-09T15:38:51;5.38;;;1.23;;
24389;SDS011;12510;56.468;-3.004;2022-09-09T15:41:19;5.88;;;1.80;;
24389;SDS011;12510;56.468;-3.004;2022-09-09T15:43:48;2.65;;;1.33;;
24389;SDS011;12510;56.468;-3.004;2022-09-09T15:48:43;4.07;;;1.40;;
24389;SDS011;12510;56.468;-3.004;2022-09-09T15:51:11;3.00;;;1.25;;
24389;SDS011;12510;56.468;-3.004;2022-09-09T15:53:37;4.00;;;1.17;;
24389;SDS011;12510;56.468;-3.004;2022-09-09T15:56:05;3.92;;;1.23;;
24389;SDS011;12510;56.468;-3.004;2022-09-09T15:58:35;3.50;;;1.10;;
24389;SDS011;12510;56.468;-3.004;2022-09-09T16:01:05;2.95;;;0.98;;
24389;SDS011;12510;56.468;-3.004;2022-09-09T16:03:33;2.47;;;0.90;;
24389;SDS011;12510;56.468;-3.004;2022-09-09T16:06:01;6.53;;;1.42;;
24389;SDS011;12510;56.468;-3.004;2022-09-09T16:08:32;2.20;;;1.05;;
24389;SDS011;12510;56.468;-3.004;2022-09-09T16:13:35;4.22;;;1.13;;
24389;SDS011;12510;56.468;-3.004;2022-09-09T16:16:03;2.58;;;1.20;;
24389;SDS011;12510;56.468;-3.004;2022-09-09T16:18:38;3.80;;;1.38;;
24389;SDS011;12510;56.468;-3.004;2022-09-09T16:21:15;1.80;;;1.10;;
24389;SDS011;12510;56.468;-3.004;2022-09-09T16:23:43;2.65;;;1.27;;
24389;SDS011;12510;56.468;-3.004;2022-09-09T16:26:11;5.65;;;1.65;;
24389;SDS011;12510;56.468;-3.004;2022-09-09T16:28:39;4.18;;;1.40;;
24389;SDS011;12510;56.468;-3.004;2022-09-09T16:31:06;4.00;;;1.05;;
24389;SDS011;12510;56.468;-3.004;2022-09-09T16:33:40;5.93;;;1.23;;
24389;SDS011;12510;56.468;-3.004;2022-09-09T16:36:07;4.97;;;1.63;;
24389;SDS011;12510;56.468;-3.004;2022-09-09T16:38:36;2.65;;;1.25;;
24389;SDS011;12510;56.468;-3.004;2022-09-09T16:41:03;4.20;;;1.60;;
24389;SDS011;12510;56.468;-3.004;2022-09-09T16:43:32;4.05;;;1.30;;
24389;SDS011;12510;56.468;-3.004;2022-09-09T16:45:59;3.58;;;1.50;;
24389;SDS011;12510;56.468;-3.004;2022-09-09T16:48:34;2.87;;;1.00;;
24389;SDS011;12510;56.468;-3.004;2022-09-09T16:51:01;3.30;;;1.40;;
24389;SDS011;12510;56.468;-3.004;2022-09-09T16:53:31;3.53;;;1.08;;
24389;SDS011;12510;56.468;-3.004;2022-09-09T16:55:58;2.83;;;1.40;;
24389;SDS011;12510;56.468;-3.004;2022-09-09T16:58:30;3.30;;;1.38;;
24389;SDS011;12510;56.468;-3.004;2022-09-09T17:01:00;3.33;;;1.23;;
24389;SDS011;12510;56.468;-3.004;2022-09-09T17:03:30;2.65;;;1.17;;
24389;SDS011;12510;56.468;-3.004;2022-09-09T17:05:58;5.75;;;1.40;;
24389;SDS011;12510;56.468;-3.004;2022-09-09T17:08:29;4.95;;;1.67;;
24389;SDS011;12510;56.468;-3.004;2022-09-09T17:10:56;5.13;;;1.20;;
24389;SDS011;12510;56.468;-3.004;2022-09-09T17:13:23;5.28;;;1.42;;
24389;SDS011;12510;56.468;-3.004;2022-09-09T17:15:51;2.85;;;1.10;;
24389;SDS011;12510;56.468;-3.004;2022-09-09T17:18:17;6.93;;;1.27;;
24389;SDS011;12510;56.468;-3.004;2022-09-09T17:20:44;7.85;;;2.33;;
24389;SDS011;12510;56.468;-3.004;2022-09-09T17:23:12;3.65;;;1.25;;
24389;SDS011;12510;56.468;-3.004;2022-09-09T17:25:41;5.93;;;1.60;;
24389;SDS011;12510;56.468;-3.004;2022-09-09T17:28:09;3.10;;;1.33;;
24389;SDS011;12510;56.468;-3.004;2022-09-09T17:30:36;2.25;;;1.13;;
24389;SDS011;12510;56.468;-3.004;2022-09-09T17:33:03;2.70;;;0.98;;
24389;SDS011;12510;56.468;-3.004;2022-09-09T17:35:30;3.90;;;1.27;;
24389;SDS011;12510;56.468;-3.004;2022-09-09T17:37:57;3.10;;;1.67;;
24389;SDS011;12510;56.468;-3.004;2022-09-09T17:40:24;3.55;;;1.27;;